Eagle Creek, Oregon
Current Conditions -  °F | °C
As of 1:33 PM on Thursday 23 Oct 2014 (Local Time) from KTTD Reporting Station
Moderate Rain Moderate Rain  
Wind Chill: 52°   Ceiling: 5000
Heat Index: 52°   Visibility: 3mi
Dew Point: 48°   Wind: 5mph
Humidity: 86%   Direction: 220°SW
Pressure: 29.91"   Gusts: NA
Location:  45.36°N, 122.36°W
Report Text: KTTD 232033Z 22004KT 3SM RA BR SCT036 OVC050 11/09 A2991 RMK AO2 TSB13E27 P0049 T01110089
Loading
Personal Weather Stations






























Interactive Weather Map
Tropical Storm Tracking
New forecast layout! Learn more

10-Day Weather Forecast

Advertisements
Track Severe Weather on mobile